createdAt,value
2022-10-05T00:01:22.142Z,3.56
2022-10-05T00:03:51.076Z,3.59
2022-10-05T00:06:19.841Z,3.61
2022-10-05T00:08:48.393Z,3.55
2022-10-05T00:11:18.839Z,3.59
2022-10-05T00:13:47.389Z,3.64
2022-10-05T00:16:20.771Z,3.60
2022-10-05T00:18:53.355Z,3.63
2022-10-05T00:21:24.014Z,3.57
2022-10-05T00:23:53.362Z,3.58
2022-10-05T00:26:24.537Z,3.59
2022-10-05T00:28:54.947Z,3.61
2022-10-05T00:31:26.978Z,3.62
2022-10-05T00:33:56.921Z,3.60
2022-10-05T00:36:26.345Z,3.58
2022-10-05T00:38:55.818Z,3.52
2022-10-05T00:41:33.806Z,3.41
2022-10-05T00:44:27.180Z,3.38
2022-10-05T00:47:07.113Z,3.45
2022-10-05T00:49:55.491Z,3.46
2022-10-05T00:52:32.174Z,3.47
2022-10-05T00:55:12.111Z,3.48
2022-10-05T00:57:56.628Z,3.51
2022-10-05T01:00:27.539Z,3.55
2022-10-05T01:03:04.451Z,3.60
2022-10-05T01:05:47.525Z,3.60
2022-10-05T01:08:27.651Z,3.66
2022-10-05T01:11:05.460Z,3.66
2022-10-05T01:13:43.512Z,3.58
2022-10-05T01:16:20.863Z,3.59
2022-10-05T01:18:58.330Z,3.58
2022-10-05T01:21:28.360Z,3.61
2022-10-05T01:24:37.928Z,3.71
2022-10-05T01:27:41.193Z,3.74
2022-10-05T01:30:14.007Z,3.82
2022-10-05T01:32:49.903Z,3.73
2022-10-05T01:35:31.224Z,3.78
2022-10-05T01:38:13.072Z,3.76
2022-10-05T01:40:50.654Z,3.81
2022-10-05T01:43:28.602Z,3.79
2022-10-05T01:46:04.858Z,3.72
2022-10-05T01:48:43.485Z,3.70
2022-10-05T01:51:23.694Z,3.75
2022-10-05T01:54:04.861Z,3.88
2022-10-05T01:56:40.269Z,3.90
2022-10-05T01:59:22.722Z,3.88
2022-10-05T02:01:59.934Z,3.82
2022-10-05T02:05:00.879Z,3.73
2022-10-05T02:07:27.804Z,3.74
2022-10-05T02:10:00.955Z,3.67
2022-10-05T02:12:32.950Z,3.72
2022-10-05T02:15:12.175Z,3.71
2022-10-05T02:17:47.290Z,3.93
2022-10-05T02:20:23.821Z,3.84
2022-10-05T02:22:57.324Z,3.91
2022-10-05T02:25:31.054Z,3.93
2022-10-05T02:28:05.387Z,3.93
2022-10-05T02:30:41.530Z,4.03
2022-10-05T02:33:19.161Z,4.00
2022-10-05T02:35:48.329Z,4.12
2022-10-05T02:38:26.311Z,4.04
2022-10-05T02:41:03.254Z,4.04
2022-10-05T02:43:40.753Z,4.07
2022-10-05T02:46:26.112Z,4.11
2022-10-05T02:49:06.883Z,4.15
2022-10-05T02:51:48.369Z,4.16
2022-10-05T02:54:28.823Z,4.18
2022-10-05T02:57:02.531Z,4.24
2022-10-05T02:59:37.317Z,4.25
2022-10-05T03:02:17.306Z,4.26
2022-10-05T03:04:55.344Z,4.29
2022-10-05T03:07:29.244Z,4.35
2022-10-05T03:10:06.222Z,4.42
2022-10-05T03:12:53.442Z,4.50
2022-10-05T03:15:46.354Z,4.52
2022-10-05T03:18:29.874Z,4.56
2022-10-05T03:21:12.184Z,4.53
2022-10-05T03:23:54.767Z,4.61
2022-10-05T03:26:40.360Z,4.61
2022-10-05T03:29:17.480Z,4.65
2022-10-05T03:31:51.461Z,4.67
2022-10-05T03:34:28.881Z,4.74
2022-10-05T03:37:07.746Z,4.77
2022-10-05T03:39:41.353Z,4.74
2022-10-05T03:42:21.590Z,4.73
2022-10-05T03:44:58.372Z,4.77
2022-10-05T03:47:34.591Z,4.78
2022-10-05T03:50:30.944Z,4.81
2022-10-05T03:53:06.385Z,4.83
2022-10-05T03:55:41.073Z,4.89
2022-10-05T03:58:18.747Z,4.95
2022-10-05T04:00:53.290Z,4.98
2022-10-05T04:03:28.083Z,5.04
2022-10-05T04:06:03.871Z,5.08
2022-10-05T04:08:45.374Z,5.20
2022-10-05T04:11:22.725Z,5.20
2022-10-05T04:13:56.843Z,5.31
2022-10-05T04:16:29.361Z,5.29
2022-10-05T04:19:05.166Z,5.33
2022-10-05T04:21:42.846Z,5.33
2022-10-05T04:24:17.066Z,5.36
2022-10-05T04:26:53.770Z,5.37
2022-10-05T04:29:32.959Z,5.43
2022-10-05T04:32:30.050Z,5.45
2022-10-05T04:35:14.143Z,5.47
2022-10-05T04:37:55.106Z,5.45
2022-10-05T04:40:38.788Z,5.45
2022-10-05T04:43:15.520Z,5.49
2022-10-05T04:46:05.779Z,5.56
2022-10-05T04:49:05.102Z,5.57
2022-10-05T04:51:41.851Z,5.60
2022-10-05T04:54:21.280Z,5.62
2022-10-05T04:56:56.766Z,5.65
2022-10-05T04:59:57.068Z,5.70
2022-10-05T05:02:36.681Z,5.74
2022-10-05T05:05:32.168Z,5.77
2022-10-05T05:08:17.244Z,5.80
2022-10-05T05:11:00.620Z,5.82
2022-10-05T05:14:15.307Z,5.89
2022-10-05T05:16:46.463Z,5.93
2022-10-05T05:19:38.443Z,5.99
2022-10-05T05:22:13.183Z,5.98
2022-10-05T05:24:59.141Z,6.03
2022-10-05T05:27:43.492Z,6.07
2022-10-05T05:30:21.404Z,6.11
2022-10-05T05:33:02.563Z,6.16
2022-10-05T05:35:58.102Z,6.19
2022-10-05T05:38:33.222Z,6.29
2022-10-05T05:41:13.859Z,6.28
2022-10-05T05:43:57.359Z,6.29
2022-10-05T05:46:45.020Z,6.33
2022-10-05T05:49:24.400Z,6.35
2022-10-05T05:52:00.884Z,6.39
2022-10-05T05:54:37.139Z,6.44
2022-10-05T05:57:13.719Z,6.46
2022-10-05T05:59:59.432Z,6.52
2022-10-05T06:02:35.856Z,6.55
2022-10-05T06:05:28.762Z,6.60
2022-10-05T06:08:02.981Z,6.64
2022-10-05T06:10:41.660Z,6.69
2022-10-05T06:13:19.461Z,6.76
2022-10-05T06:15:55.556Z,6.79
2022-10-05T06:18:24.960Z,6.83
2022-10-05T06:21:01.372Z,6.89
2022-10-05T06:23:40.526Z,6.96
2022-10-05T06:26:32.944Z,6.99
2022-10-05T06:29:05.502Z,7.06
2022-10-05T06:31:58.732Z,7.11
2022-10-05T06:34:48.198Z,7.18
2022-10-05T06:37:25.369Z,7.28
2022-10-05T06:40:12.719Z,7.22
2022-10-05T06:42:51.177Z,7.27
2022-10-05T06:45:53.305Z,7.31
2022-10-05T06:49:04.959Z,7.44
2022-10-05T06:52:02.658Z,7.43
2022-10-05T06:54:47.623Z,7.47
2022-10-05T06:57:36.812Z,7.54
2022-10-05T07:00:17.669Z,7.52
2022-10-05T07:03:02.106Z,7.58
2022-10-05T07:06:03.562Z,7.62
2022-10-05T07:08:50.426Z,7.69
2022-10-05T07:11:34.716Z,7.74
2022-10-05T07:14:29.701Z,7.78
2022-10-05T07:17:15.948Z,7.80
2022-10-05T07:19:54.997Z,7.78
2022-10-05T07:22:44.040Z,7.82
2022-10-05T07:25:19.498Z,7.87
2022-10-05T07:27:55.285Z,7.88
2022-10-05T07:30:24.828Z,7.83
2022-10-05T07:33:01.233Z,8.01
2022-10-05T07:35:57.840Z,7.96
2022-10-05T07:38:33.207Z,7.86
2022-10-05T07:41:07.681Z,7.93
2022-10-05T07:44:02.086Z,7.92
2022-10-05T07:46:48.473Z,7.92
2022-10-05T07:49:26.827Z,7.90
2022-10-05T07:52:01.086Z,7.96
2022-10-05T07:54:41.824Z,7.97
2022-10-05T07:57:22.600Z,8.07
2022-10-05T07:59:58.819Z,8.16
2022-10-05T08:02:30.742Z,8.14
2022-10-05T08:05:05.190Z,8.17
2022-10-05T08:07:37.117Z,8.11
2022-10-05T08:10:25.547Z,8.11
2022-10-05T08:13:05.366Z,8.17
2022-10-05T08:15:38.526Z,8.18
2022-10-05T08:18:16.606Z,8.21
2022-10-05T08:20:48.099Z,8.32
2022-10-05T08:23:25.368Z,8.43
2022-10-05T08:26:07.967Z,8.48
2022-10-05T08:28:39.770Z,8.49
2022-10-05T08:31:17.941Z,8.51
2022-10-05T08:33:56.739Z,8.54
2022-10-05T08:36:35.259Z,8.53
2022-10-05T08:39:11.279Z,8.52
2022-10-05T08:42:17.067Z,8.55
2022-10-05T08:45:40.361Z,8.57
2022-10-05T08:48:40.565Z,8.67
2022-10-05T08:51:44.549Z,8.69
2022-10-05T08:54:37.610Z,8.68
2022-10-05T08:57:42.501Z,8.65
2022-10-05T09:00:14.340Z,8.65
2022-10-05T09:03:05.581Z,8.70
2022-10-05T09:06:19.510Z,8.68
2022-10-05T09:09:20.862Z,8.71
2022-10-05T09:12:04.581Z,8.73
2022-10-05T09:14:56.570Z,8.71
2022-10-05T09:18:07.384Z,8.72
2022-10-05T09:20:51.534Z,8.74
2022-10-05T09:23:32.265Z,8.75
2022-10-05T09:26:09.040Z,8.80
2022-10-05T09:28:56.499Z,8.82
2022-10-05T09:31:42.717Z,8.81
2022-10-05T09:34:40.341Z,8.82
2022-10-05T09:37:36.519Z,8.87
2022-10-05T09:40:50.809Z,8.91
2022-10-05T09:43:57.426Z,8.99
2022-10-05T09:47:01.007Z,9.08
2022-10-05T09:50:11.019Z,9.11
2022-10-05T09:53:07.372Z,9.14
2022-10-05T09:56:09.287Z,9.16
2022-10-05T09:59:25.279Z,9.17
2022-10-05T10:02:17.189Z,9.20
2022-10-05T10:05:30.200Z,9.24
2022-10-05T10:08:11.818Z,9.25
2022-10-05T10:11:03.465Z,9.32
2022-10-05T10:13:54.079Z,9.33
2022-10-05T10:16:43.145Z,9.42
2022-10-05T10:19:35.318Z,9.52
2022-10-05T10:22:25.837Z,9.47
2022-10-05T10:25:16.782Z,9.43
2022-10-05T10:28:08.115Z,9.45
2022-10-05T10:31:02.895Z,9.44
2022-10-05T10:34:12.779Z,9.44
2022-10-05T10:37:16.518Z,9.50
2022-10-05T10:40:05.108Z,9.52
2022-10-05T10:42:46.582Z,9.62
2022-10-05T10:45:21.404Z,9.63
2022-10-05T10:47:57.367Z,9.72
2022-10-05T10:51:11.788Z,9.74
2022-10-05T10:54:12.549Z,9.75
2022-10-05T10:56:55.352Z,9.80
2022-10-05T11:00:23.168Z,9.80
2022-10-05T11:03:22.872Z,9.82
2022-10-05T11:06:19.133Z,9.92
2022-10-05T11:09:09.973Z,9.96
2022-10-05T11:12:08.342Z,9.96
2022-10-05T11:14:58.632Z,9.86
2022-10-05T11:17:37.544Z,9.90
2022-10-05T11:20:25.325Z,9.91
2022-10-05T11:23:04.669Z,9.90
2022-10-05T11:25:44.641Z,9.91
2022-10-05T11:28:53.232Z,9.88
2022-10-05T11:31:58.546Z,9.87
2022-10-05T11:34:53.422Z,9.86
2022-10-05T11:37:47.647Z,9.91
2022-10-05T11:40:55.925Z,9.92
2022-10-05T11:43:54.550Z,9.90
2022-10-05T11:46:29.184Z,9.93
2022-10-05T11:49:23.484Z,9.95
2022-10-05T11:52:05.602Z,9.94
2022-10-05T11:55:11.008Z,9.97
2022-10-05T11:57:47.873Z,10.01
2022-10-05T12:00:20.087Z,10.00
2022-10-05T12:03:25.640Z,9.99
2022-10-05T12:06:17.583Z,10.04
2022-10-05T12:09:00.886Z,10.07
2022-10-05T12:11:47.527Z,10.07
2022-10-05T12:14:26.034Z,10.10
2022-10-05T12:17:01.144Z,10.11
2022-10-05T12:19:36.889Z,10.10
2022-10-05T12:22:15.631Z,10.09
2022-10-05T12:25:06.748Z,10.11
2022-10-05T12:27:38.862Z,10.14
2022-10-05T12:30:15.350Z,10.13
2022-10-05T12:33:01.698Z,10.13
2022-10-05T12:35:47.880Z,10.15
2022-10-05T12:38:28.923Z,10.16
2022-10-05T12:41:07.382Z,10.19
2022-10-05T12:43:50.519Z,10.19
2022-10-05T12:46:28.059Z,10.21
2022-10-05T12:49:18.239Z,10.28
2022-10-05T12:51:54.111Z,10.23
2022-10-05T12:54:32.099Z,10.29
2022-10-05T12:57:07.845Z,10.27
2022-10-05T12:59:42.207Z,10.31
2022-10-05T13:02:25.100Z,10.33
2022-10-05T13:05:04.073Z,10.35
2022-10-05T13:07:47.150Z,10.37
2022-10-05T13:10:30.971Z,10.42
2022-10-05T13:13:23.869Z,10.44
2022-10-05T13:15:57.837Z,10.42
2022-10-05T13:18:35.601Z,10.42
2022-10-05T13:21:12.660Z,10.42
2022-10-05T13:23:56.563Z,10.46
2022-10-05T13:26:33.746Z,10.52
2022-10-05T13:29:14.352Z,10.53
2022-10-05T13:31:48.115Z,10.52
2022-10-05T13:34:29.545Z,10.52
2022-10-05T13:37:11.274Z,10.56
2022-10-05T13:39:53.752Z,10.55
2022-10-05T13:42:34.236Z,10.62
2022-10-05T13:45:14.836Z,10.67
2022-10-05T13:47:51.703Z,10.64
2022-10-05T13:50:25.823Z,10.68
2022-10-05T13:53:01.272Z,10.70
2022-10-05T13:55:38.906Z,10.71
2022-10-05T13:58:16.830Z,10.73
2022-10-05T14:00:52.045Z,10.74
2022-10-05T14:03:30.927Z,10.71
2022-10-05T14:06:01.903Z,10.74
2022-10-05T14:08:31.388Z,10.75
2022-10-05T14:11:00.660Z,10.74
2022-10-05T14:13:35.784Z,10.76
2022-10-05T14:16:20.131Z,10.81
2022-10-05T14:18:58.746Z,10.83
2022-10-05T14:21:30.745Z,10.81
2022-10-05T14:24:39.582Z,10.80
2022-10-05T14:27:22.896Z,10.88
2022-10-05T14:29:58.838Z,10.84
2022-10-05T14:32:31.648Z,10.83
2022-10-05T14:35:16.309Z,10.86
2022-10-05T14:37:50.722Z,10.84
2022-10-05T14:40:37.038Z,10.84
2022-10-05T14:43:20.729Z,10.86
2022-10-05T14:45:59.579Z,10.87
2022-10-05T14:48:30.430Z,10.87
2022-10-05T14:51:02.446Z,10.87
2022-10-05T14:53:40.807Z,10.83
2022-10-05T14:56:24.926Z,10.86
2022-10-05T14:59:26.048Z,10.88
2022-10-05T15:02:02.629Z,10.88
2022-10-05T15:04:43.294Z,10.87
2022-10-05T15:07:23.594Z,10.85
2022-10-05T15:10:08.909Z,10.84
2022-10-05T15:12:41.705Z,10.84
2022-10-05T15:15:27.245Z,10.84
2022-10-05T15:18:01.687Z,10.86
2022-10-05T15:20:36.442Z,10.90
2022-10-05T15:23:24.740Z,10.86
2022-10-05T15:26:02.399Z,10.88
2022-10-05T15:28:39.335Z,10.87
2022-10-05T15:31:25.199Z,10.88
2022-10-05T15:34:02.040Z,10.84
2022-10-05T15:36:43.143Z,10.79
2022-10-05T15:39:17.164Z,10.79
2022-10-05T15:41:59.021Z,10.76
2022-10-05T15:44:46.564Z,10.73
2022-10-05T15:47:21.137Z,10.71
2022-10-05T15:50:03.597Z,10.70
2022-10-05T15:52:39.135Z,10.75
2022-10-05T15:55:40.023Z,10.73
2022-10-05T15:58:31.862Z,10.79
2022-10-05T16:01:08.435Z,10.80
2022-10-05T16:03:47.222Z,10.79
2022-10-05T16:07:00.181Z,10.77
2022-10-05T16:09:39.319Z,10.82
2022-10-05T16:12:21.360Z,10.78
2022-10-05T16:15:00.148Z,10.77
2022-10-05T16:17:45.220Z,10.75
2022-10-05T16:20:26.726Z,10.77
2022-10-05T16:23:04.263Z,10.80
2022-10-05T16:25:47.922Z,10.78
2022-10-05T16:28:36.870Z,10.82
2022-10-05T16:31:18.706Z,10.76
2022-10-05T16:34:03.501Z,10.80
2022-10-05T16:36:48.982Z,10.81
2022-10-05T16:39:38.642Z,10.77
2022-10-05T16:42:18.513Z,10.81
2022-10-05T16:44:57.780Z,10.77
2022-10-05T16:47:41.499Z,10.74
2022-10-05T16:50:21.461Z,10.77
2022-10-05T16:52:57.925Z,10.77
2022-10-05T16:55:36.006Z,10.80
2022-10-05T16:58:13.305Z,10.80
2022-10-05T17:01:06.022Z,10.78
2022-10-05T17:03:52.425Z,10.79
2022-10-05T17:06:42.547Z,10.76
2022-10-05T17:09:37.534Z,10.74
2022-10-05T17:12:36.987Z,10.76
2022-10-05T17:15:20.547Z,10.76
2022-10-05T17:18:08.680Z,10.73
2022-10-05T17:20:47.424Z,10.77
2022-10-05T17:23:30.459Z,10.75
2022-10-05T17:26:09.672Z,10.77
2022-10-05T17:28:45.706Z,10.78
2022-10-05T17:31:19.354Z,10.79
2022-10-05T17:34:26.794Z,10.80
2022-10-05T17:36:59.978Z,10.77
2022-10-05T17:39:50.170Z,10.80
2022-10-05T17:42:50.148Z,10.78
2022-10-05T17:45:53.578Z,10.78
2022-10-05T17:48:40.569Z,10.79
2022-10-05T17:52:05.707Z,10.77
2022-10-05T17:55:30.784Z,10.79
2022-10-05T17:58:01.899Z,10.80
2022-10-05T18:01:17.717Z,10.80
2022-10-05T18:03:52.160Z,10.76
2022-10-05T18:06:34.600Z,10.73
2022-10-05T18:09:39.599Z,10.75
2022-10-05T18:12:45.437Z,10.76
2022-10-05T18:15:45.310Z,10.74
2022-10-05T18:18:58.981Z,10.70
2022-10-05T18:21:39.821Z,10.71
2022-10-05T18:24:45.683Z,10.72
2022-10-05T18:27:36.821Z,10.74
2022-10-05T18:30:19.284Z,10.75
2022-10-05T18:33:04.973Z,10.73
2022-10-05T18:35:46.256Z,10.73
2022-10-05T18:38:30.216Z,10.73
2022-10-05T18:41:05.379Z,10.74
2022-10-05T18:43:44.415Z,10.72
2022-10-05T18:46:29.467Z,10.75
2022-10-05T18:49:10.897Z,10.72
2022-10-05T18:51:51.957Z,10.75
2022-10-05T18:54:41.817Z,10.72
2022-10-05T18:57:51.460Z,10.75
2022-10-05T19:00:22.758Z,10.75
2022-10-05T19:02:57.315Z,10.74
2022-10-05T19:05:49.137Z,10.76
2022-10-05T19:08:33.203Z,10.73
2022-10-05T19:11:12.405Z,10.74
2022-10-05T19:13:51.270Z,10.73
2022-10-05T19:16:37.863Z,10.74
2022-10-05T19:19:30.748Z,10.75
2022-10-05T19:22:08.805Z,10.72
2022-10-05T19:24:50.505Z,10.73
2022-10-05T19:27:28.404Z,10.72
2022-10-05T19:30:13.720Z,10.74
2022-10-05T19:32:56.408Z,10.73
2022-10-05T19:35:32.568Z,10.75
2022-10-05T19:40:58.969Z,10.79
2022-10-05T19:43:50.708Z,10.75
2022-10-05T19:46:34.186Z,10.76
2022-10-05T19:49:03.006Z,10.72
2022-10-05T19:51:34.179Z,10.70
2022-10-05T19:54:08.043Z,10.70
2022-10-05T19:56:49.738Z,10.71
2022-10-05T19:59:24.677Z,10.72
2022-10-05T20:01:55.549Z,10.73
2022-10-05T20:04:37.797Z,10.72
2022-10-05T20:07:06.776Z,10.76
2022-10-05T20:09:52.067Z,10.71
2022-10-05T20:12:23.227Z,10.76
2022-10-05T20:18:04.247Z,10.72
2022-10-05T20:20:43.302Z,10.72
2022-10-05T20:23:28.160Z,10.71
2022-10-05T20:26:14.025Z,10.74
2022-10-05T20:28:43.255Z,10.75
2022-10-05T20:31:12.674Z,10.75
2022-10-05T20:33:42.812Z,10.76
2022-10-05T20:36:11.502Z,10.76
2022-10-05T20:38:41.390Z,10.74
2022-10-05T20:41:10.459Z,10.76
2022-10-05T20:43:39.594Z,10.73
2022-10-05T20:46:08.953Z,10.76
2022-10-05T20:48:37.540Z,10.72
2022-10-05T20:51:08.141Z,10.71
2022-10-05T20:53:36.779Z,10.71
2022-10-05T20:56:05.478Z,10.69
2022-10-05T20:58:34.220Z,10.70
2022-10-05T21:01:19.979Z,10.71
2022-10-05T21:03:48.900Z,10.71
2022-10-05T21:06:19.353Z,10.69
2022-10-05T21:08:48.185Z,10.71
2022-10-05T21:11:16.742Z,10.73
2022-10-05T21:13:46.238Z,10.74
2022-10-05T21:16:18.592Z,10.76
2022-10-05T21:18:50.019Z,10.76
2022-10-05T21:21:21.063Z,10.77
2022-10-05T21:23:49.481Z,10.75
2022-10-05T21:26:19.245Z,10.75
2022-10-05T21:28:47.979Z,10.79
2022-10-05T21:31:16.849Z,10.74
2022-10-05T21:33:45.667Z,10.75
2022-10-05T21:36:15.106Z,10.73
2022-10-05T21:38:45.826Z,10.74
2022-10-05T21:41:14.907Z,10.72
2022-10-05T21:43:43.844Z,10.75
2022-10-05T21:46:14.746Z,10.75
2022-10-05T21:48:43.544Z,10.75
2022-10-05T21:51:16.608Z,10.73
2022-10-05T21:53:50.204Z,10.71
2022-10-05T21:56:23.785Z,10.70
2022-10-05T21:58:53.484Z,10.70
2022-10-05T22:01:23.102Z,10.71
2022-10-05T22:03:51.917Z,10.72
2022-10-05T22:06:20.518Z,10.70
2022-10-05T22:08:50.638Z,10.72
2022-10-05T22:11:19.479Z,10.72
2022-10-05T22:13:50.275Z,10.69
2022-10-05T22:16:21.376Z,10.69
2022-10-05T22:18:50.362Z,10.66
2022-10-05T22:21:21.176Z,10.66
2022-10-05T22:23:51.448Z,10.67
2022-10-05T22:26:23.253Z,10.69
2022-10-05T22:28:55.705Z,10.65
2022-10-05T22:31:24.879Z,10.64
2022-10-05T22:33:53.494Z,10.65
2022-10-05T22:36:22.928Z,10.64
2022-10-05T22:38:52.833Z,10.67
2022-10-05T22:41:21.442Z,10.65
2022-10-05T22:43:51.053Z,10.67
2022-10-05T22:46:20.072Z,10.67
2022-10-05T22:48:48.753Z,10.71
2022-10-05T22:51:17.346Z,10.69
2022-10-05T22:53:45.940Z,10.71
2022-10-05T22:56:16.456Z,10.69
2022-10-05T22:58:45.868Z,10.68
2022-10-05T23:01:16.535Z,10.67
2022-10-05T23:03:45.257Z,10.68
2022-10-05T23:06:15.555Z,10.67
2022-10-05T23:08:46.190Z,10.71
2022-10-05T23:11:18.218Z,10.71
2022-10-05T23:13:46.811Z,10.70
2022-10-05T23:16:17.327Z,10.77
2022-10-05T23:18:48.846Z,10.72
2022-10-05T23:21:18.446Z,10.71
2022-10-05T23:23:49.230Z,10.72
2022-10-05T23:26:21.960Z,10.70
2022-10-05T23:28:51.399Z,10.70
2022-10-05T23:31:21.924Z,10.73
2022-10-05T23:33:50.470Z,10.74
2022-10-05T23:36:20.510Z,10.79
2022-10-05T23:38:49.636Z,10.72
2022-10-05T23:41:20.943Z,10.73
2022-10-05T23:43:49.942Z,10.75
2022-10-05T23:46:19.213Z,10.75
2022-10-05T23:48:47.778Z,10.74
2022-10-05T23:51:16.719Z,10.76
2022-10-05T23:53:45.227Z,10.75
2022-10-05T23:56:14.013Z,10.81
2022-10-05T23:58:45.171Z,10.82
